sensor_id;sensor_type;location;lat;lon;timestamp;pressure;altitude;pressure_sealevel;temperature;humidity
50550;BME280;36505;52.512;13.460;2022-09-23T00:00:32;101694.44;;;8.84;71.38
50550;BME280;36505;52.512;13.460;2022-09-23T00:02:57;101696.34;;;8.83;71.37
50550;BME280;36505;52.512;13.460;2022-09-23T00:05:24;101691.53;;;8.85;72.02
50550;BME280;36505;52.512;13.460;2022-09-23T00:07:49;101694.06;;;8.87;72.35
50550;BME280;36505;52.512;13.460;2022-09-23T00:10:15;101691.31;;;8.87;72.08
50550;BME280;36505;52.512;13.460;2022-09-23T00:12:40;101689.84;;;8.84;72.11
50550;BME280;36505;52.512;13.460;2022-09-23T00:15:05;101681.00;;;8.82;72.54
50550;BME280;36505;52.512;13.460;2022-09-23T00:17:31;101681.84;;;8.83;72.60
50550;BME280;36505;52.512;13.460;2022-09-23T00:19:56;101680.16;;;8.82;72.94
50550;BME280;36505;52.512;13.460;2022-09-23T00:22:21;101675.97;;;8.79;73.17
50550;BME280;36505;52.512;13.460;2022-09-23T00:24:47;101668.41;;;8.75;73.35
50550;BME280;36505;52.512;13.460;2022-09-23T00:27:12;101677.03;;;8.71;73.47
50550;BME280;36505;52.512;13.460;2022-09-23T00:29:38;101673.66;;;8.69;73.84
50550;BME280;36505;52.512;13.460;2022-09-23T00:32:03;101670.50;;;8.66;74.04
50550;BME280;36505;52.512;13.460;2022-09-23T00:34:28;101667.53;;;8.61;74.44
50550;BME280;36505;52.512;13.460;2022-09-23T00:36:53;101658.50;;;8.60;74.40
50550;BME280;36505;52.512;13.460;2022-09-23T00:39:19;101658.75;;;8.59;74.55
50550;BME280;36505;52.512;13.460;2022-09-23T00:41:45;101668.59;;;8.60;74.69
50550;BME280;36505;52.512;13.460;2022-09-23T00:46:54;101657.06;;;8.58;75.04
50550;BME280;36505;52.512;13.460;2022-09-23T00:49:26;101654.34;;;8.58;75.19
50550;BME280;36505;52.512;13.460;2022-09-23T00:51:55;101653.69;;;8.56;74.80
50550;BME280;36505;52.512;13.460;2022-09-23T00:54:23;101662.94;;;8.55;74.80
50550;BME280;36505;52.512;13.460;2022-09-23T00:56:51;101661.69;;;8.51;74.96
50550;BME280;36505;52.512;13.460;2022-09-23T00:59:16;101651.16;;;8.48;74.97
50550;BME280;36505;52.512;13.460;2022-09-23T01:01:41;101651.16;;;8.48;75.47
50550;BME280;36505;52.512;13.460;2022-09-23T01:04:08;101641.94;;;8.49;76.01
50550;BME280;36505;52.512;13.460;2022-09-23T01:06:33;101642.78;;;8.49;76.08
50550;BME280;36505;52.512;13.460;2022-09-23T01:08:59;101646.53;;;8.48;76.13
50550;BME280;36505;52.512;13.460;2022-09-23T01:16:26;101634.97;;;8.46;76.05
50550;BME280;36505;52.512;13.460;2022-09-23T01:19:09;101628.91;;;8.44;75.76
50550;BME280;36505;52.512;13.460;2022-09-23T01:26:54;101623.47;;;8.44;75.98
50550;BME280;36505;52.512;13.460;2022-09-23T01:34:42;101628.47;;;8.47;75.76
50550;BME280;36505;52.512;13.460;2022-09-23T01:37:25;101626.59;;;8.48;75.72
50550;BME280;36505;52.512;13.460;2022-09-23T01:44:52;101621.97;;;8.42;75.98
50550;BME280;36505;52.512;13.460;2022-09-23T01:47:21;101617.56;;;8.41;76.20
50550;BME280;36505;52.512;13.460;2022-09-23T01:52:23;101615.25;;;8.38;76.55
50550;BME280;36505;52.512;13.460;2022-09-23T01:57:22;101616.50;;;8.35;76.48
50550;BME280;36505;52.512;13.460;2022-09-23T01:59:53;101618.84;;;8.31;76.78
50550;BME280;36505;52.512;13.460;2022-09-23T02:02:22;101623.44;;;8.31;76.88
50550;BME280;36505;52.512;13.460;2022-09-23T02:04:57;101617.16;;;8.30;77.00
50550;BME280;36505;52.512;13.460;2022-09-23T02:07:45;101609.53;;;8.26;77.06
50550;BME280;36505;52.512;13.460;2022-09-23T02:10:15;101615.22;;;8.24;77.24
50550;BME280;36505;52.512;13.460;2022-09-23T02:12:44;101612.50;;;8.24;77.31
50550;BME280;36505;52.512;13.460;2022-09-23T02:15:12;101606.81;;;8.26;77.31
50550;BME280;36505;52.512;13.460;2022-09-23T02:17:41;101602.44;;;8.25;77.35
50550;BME280;36505;52.512;13.460;2022-09-23T02:20:08;101599.69;;;8.25;77.62
50550;BME280;36505;52.512;13.460;2022-09-23T02:25:06;101601.97;;;8.15;77.83
50550;BME280;36505;52.512;13.460;2022-09-23T02:27:36;101595.69;;;8.14;78.12
50550;BME280;36505;52.512;13.460;2022-09-23T02:32:42;101588.13;;;8.16;77.72
50550;BME280;36505;52.512;13.460;2022-09-23T02:37:45;101579.09;;;8.16;77.79
50550;BME280;36505;52.512;13.460;2022-09-23T02:40:15;101581.19;;;8.14;78.03
50550;BME280;36505;52.512;13.460;2022-09-23T02:45:06;101584.56;;;8.09;77.89
50550;BME280;36505;52.512;13.460;2022-09-23T02:47:32;101576.38;;;8.03;78.30
50550;BME280;36505;52.512;13.460;2022-09-23T02:49:58;101586.00;;;7.99;78.59
50550;BME280;36505;52.512;13.460;2022-09-23T02:52:23;101569.41;;;7.93;78.48
50550;BME280;36505;52.512;13.460;2022-09-23T02:54:49;101572.13;;;7.87;79.02
50550;BME280;36505;52.512;13.460;2022-09-23T02:57:15;101571.28;;;7.80;79.29
50550;BME280;36505;52.512;13.460;2022-09-23T02:59:40;101564.56;;;7.76;79.74
50550;BME280;36505;52.512;13.460;2022-09-23T03:12:21;101557.38;;;7.55;80.03
50550;BME280;36505;52.512;13.460;2022-09-23T03:15:02;101560.94;;;7.49;80.06
50550;BME280;36505;52.512;13.460;2022-09-23T03:17:42;101553.78;;;7.48;79.84
50550;BME280;36505;52.512;13.460;2022-09-23T03:20:16;101552.56;;;7.50;79.98
50550;BME280;36505;52.512;13.460;2022-09-23T03:22:47;101556.09;;;7.58;80.08
50550;BME280;36505;52.512;13.460;2022-09-23T03:25:17;101540.81;;;7.57;79.64
50550;BME280;36505;52.512;13.460;2022-09-23T03:27:44;101524.22;;;7.45;79.66
50550;BME280;36505;52.512;13.460;2022-09-23T03:30:10;101539.56;;;7.59;79.58
50550;BME280;36505;52.512;13.460;2022-09-23T03:32:35;101537.66;;;7.60;79.44
50550;BME280;36505;52.512;13.460;2022-09-23T03:35:02;101540.00;;;7.63;79.20
50550;BME280;36505;52.512;13.460;2022-09-23T03:37:51;101539.56;;;7.66;79.23
50550;BME280;36505;52.512;13.460;2022-09-23T03:40:22;101537.50;;;7.68;79.49
50550;BME280;36505;52.512;13.460;2022-09-23T03:42:49;101533.91;;;7.67;79.43
50550;BME280;36505;52.512;13.460;2022-09-23T03:45:16;101532.03;;;7.68;79.34
50550;BME280;36505;52.512;13.460;2022-09-23T03:47:44;101531.19;;;7.67;79.14
50550;BME280;36505;52.512;13.460;2022-09-23T03:50:10;101531.41;;;7.66;78.97
50550;BME280;36505;52.512;13.460;2022-09-23T03:52:37;101533.09;;;7.67;79.04
50550;BME280;36505;52.512;13.460;2022-09-23T03:55:03;101527.63;;;7.67;78.81
50550;BME280;36505;52.512;13.460;2022-09-23T03:57:29;101533.09;;;7.67;78.76
50550;BME280;36505;52.512;13.460;2022-09-23T03:59:55;101533.09;;;7.67;78.87
50550;BME280;36505;52.512;13.460;2022-09-23T04:02:21;101526.59;;;7.68;78.89
50550;BME280;36505;52.512;13.460;2022-09-23T04:04:46;101526.78;;;7.66;79.07
50550;BME280;36505;52.512;13.460;2022-09-23T04:07:11;101518.41;;;7.61;78.73
50550;BME280;36505;52.512;13.460;2022-09-23T04:09:37;101520.91;;;7.56;78.55
50550;BME280;36505;52.512;13.460;2022-09-23T04:12:02;101516.91;;;7.52;78.74
50550;BME280;36505;52.512;13.460;2022-09-23T04:14:27;101512.72;;;7.49;78.70
50550;BME280;36505;52.512;13.460;2022-09-23T04:16:53;101515.44;;;7.49;79.20
50550;BME280;36505;52.512;13.460;2022-09-23T04:19:18;101510.38;;;7.46;78.76
50550;BME280;36505;52.512;13.460;2022-09-23T04:21:43;101511.41;;;7.39;78.84
50550;BME280;36505;52.512;13.460;2022-09-23T04:24:09;101509.09;;;7.36;79.03
50550;BME280;36505;52.512;13.460;2022-09-23T04:26:35;101515.16;;;7.31;79.10
50550;BME280;36505;52.512;13.460;2022-09-23T04:29:00;101510.75;;;7.30;79.09
50550;BME280;36505;52.512;13.460;2022-09-23T04:31:26;101507.22;;;7.30;79.14
50550;BME280;36505;52.512;13.460;2022-09-23T04:33:52;101508.00;;;7.30;79.00
50550;BME280;36505;52.512;13.460;2022-09-23T04:36:18;101505.72;;;7.27;79.23
50550;BME280;36505;52.512;13.460;2022-09-23T04:38:46;101508.19;;;7.16;79.46
50550;BME280;36505;52.512;13.460;2022-09-23T04:41:12;101505.00;;;7.05;79.82
50550;BME280;36505;52.512;13.460;2022-09-23T04:43:38;101504.59;;;7.02;80.06
50550;BME280;36505;52.512;13.460;2022-09-23T04:46:04;101499.97;;;7.02;80.58
50550;BME280;36505;52.512;13.460;2022-09-23T04:48:30;101498.28;;;7.01;80.36
50550;BME280;36505;52.512;13.460;2022-09-23T04:51:02;101497.66;;;6.99;80.17
50550;BME280;36505;52.512;13.460;2022-09-23T04:53:28;101502.25;;;6.99;80.28
50550;BME280;36505;52.512;13.460;2022-09-23T04:55:53;101505.13;;;6.91;80.79
50550;BME280;36505;52.512;13.460;2022-09-23T04:58:19;101505.75;;;6.86;80.56
50550;BME280;36505;52.512;13.460;2022-09-23T05:00:47;101500.09;;;6.88;80.68
50550;BME280;36505;52.512;13.460;2022-09-23T05:03:12;101506.63;;;6.93;81.04
50550;BME280;36505;52.512;13.460;2022-09-23T05:05:37;101503.28;;;6.98;80.78
50550;BME280;36505;52.512;13.460;2022-09-23T05:08:02;101509.53;;;6.92;80.30
50550;BME280;36505;52.512;13.460;2022-09-23T05:10:28;101503.84;;;6.80;80.75
50550;BME280;36505;52.512;13.460;2022-09-23T05:12:53;101504.34;;;6.62;81.46
50550;BME280;36505;52.512;13.460;2022-09-23T05:15:18;101506.38;;;6.47;82.28
50550;BME280;36505;52.512;13.460;2022-09-23T05:17:45;101504.44;;;6.41;82.87
50550;BME280;36505;52.512;13.460;2022-09-23T05:20:10;101508.59;;;6.37;83.29
50550;BME280;36505;52.512;13.460;2022-09-23T05:22:36;101503.09;;;6.30;83.47
50550;BME280;36505;52.512;13.460;2022-09-23T05:25:02;101509.13;;;6.26;84.05
50550;BME280;36505;52.512;13.460;2022-09-23T05:27:27;101507.63;;;6.23;84.73
50550;BME280;36505;52.512;13.460;2022-09-23T05:29:53;101509.94;;;6.20;84.86
50550;BME280;36505;52.512;13.460;2022-09-23T05:32:18;101503.47;;;6.21;84.95
50550;BME280;36505;52.512;13.460;2022-09-23T05:34:43;101506.19;;;6.21;84.97
50550;BME280;36505;52.512;13.460;2022-09-23T05:37:09;101498.03;;;6.21;85.08
50550;BME280;36505;52.512;13.460;2022-09-23T05:39:34;101500.13;;;6.25;84.88
50550;BME280;36505;52.512;13.460;2022-09-23T05:41:59;101494.50;;;6.27;84.96
50550;BME280;36505;52.512;13.460;2022-09-23T05:44:25;101493.28;;;6.36;84.69
50550;BME280;36505;52.512;13.460;2022-09-23T05:46:50;101502.34;;;6.43;84.47
50550;BME280;36505;52.512;13.460;2022-09-23T05:49:15;101496.94;;;6.50;84.46
50550;BME280;36505;52.512;13.460;2022-09-23T05:51:40;101498.06;;;6.62;84.21
50550;BME280;36505;52.512;13.460;2022-09-23T05:54:06;101499.19;;;6.74;83.76
50550;BME280;36505;52.512;13.460;2022-09-23T05:56:32;101496.81;;;6.99;82.64
50550;BME280;36505;52.512;13.460;2022-09-23T05:58:58;101499.00;;;7.23;81.27
50550;BME280;36505;52.512;13.460;2022-09-23T06:01:28;101502.28;;;8.12;79.02
50550;BME280;36505;52.512;13.460;2022-09-23T06:03:56;101483.38;;;9.28;75.77
50550;BME280;36505;52.512;13.460;2022-09-23T06:06:38;101489.50;;;10.42;71.41
50550;BME280;36505;52.512;13.460;2022-09-23T06:09:04;101494.66;;;11.41;66.63
50550;BME280;36505;52.512;13.460;2022-09-23T06:11:30;101506.69;;;12.00;62.87
50550;BME280;36505;52.512;13.460;2022-09-23T06:13:56;101497.31;;;12.43;61.81
50550;BME280;36505;52.512;13.460;2022-09-23T06:16:32;101496.78;;;13.16;60.14
50550;BME280;36505;52.512;13.460;2022-09-23T06:18:57;101498.81;;;13.77;57.88
50550;BME280;36505;52.512;13.460;2022-09-23T06:21:29;101489.34;;;13.84;56.52
50550;BME280;36505;52.512;13.460;2022-09-23T06:23:54;101493.53;;;14.37;55.26
50550;BME280;36505;52.512;13.460;2022-09-23T06:26:21;101487.94;;;14.66;54.33
50550;BME280;36505;52.512;13.460;2022-09-23T06:28:47;101491.84;;;14.70;52.64
50550;BME280;36505;52.512;13.460;2022-09-23T06:31:13;101493.06;;;14.79;52.49
50550;BME280;36505;52.512;13.460;2022-09-23T06:33:39;101490.72;;;14.87;52.73
50550;BME280;36505;52.512;13.460;2022-09-23T06:36:05;101488.53;;;14.89;51.93
50550;BME280;36505;52.512;13.460;2022-09-23T06:38:30;101503.38;;;15.05;51.13
50550;BME280;36505;52.512;13.460;2022-09-23T06:40:58;101499.31;;;15.13;51.98
50550;BME280;36505;52.512;13.460;2022-09-23T06:43:23;101493.31;;;15.42;51.23
50550;BME280;36505;52.512;13.460;2022-09-23T06:45:56;101490.53;;;16.18;48.76
50550;BME280;36505;52.512;13.460;2022-09-23T06:48:22;101493.13;;;16.30;48.73
50550;BME280;36505;52.512;13.460;2022-09-23T06:50:48;101498.97;;;16.70;47.81
50550;BME280;36505;52.512;13.460;2022-09-23T06:53:14;101496.84;;;16.87;47.08
50550;BME280;36505;52.512;13.460;2022-09-23T06:55:39;101499.78;;;17.18;46.49
50550;BME280;36505;52.512;13.460;2022-09-23T06:58:05;101502.78;;;17.73;45.14
50550;BME280;36505;52.512;13.460;2022-09-23T07:00:31;101488.97;;;18.19;44.37
50550;BME280;36505;52.512;13.460;2022-09-23T07:02:56;101489.50;;;18.36;44.04
50550;BME280;36505;52.512;13.460;2022-09-23T07:05:21;101491.69;;;18.90;42.24
50550;BME280;36505;52.512;13.460;2022-09-23T07:07:47;101496.63;;;19.08;41.66
50550;BME280;36505;52.512;13.460;2022-09-23T07:10:12;101501.69;;;19.60;40.53
50550;BME280;36505;52.512;13.460;2022-09-23T07:12:38;101492.16;;;20.49;39.54
50550;BME280;36505;52.512;13.460;2022-09-23T07:15:03;101490.88;;;20.95;38.88
50550;BME280;36505;52.512;13.460;2022-09-23T07:17:29;101499.44;;;21.64;37.22
50550;BME280;36505;52.512;13.460;2022-09-23T07:19:54;101490.59;;;22.32;34.47
50550;BME280;36505;52.512;13.460;2022-09-23T07:22:23;101491.41;;;22.00;35.00
50550;BME280;36505;52.512;13.460;2022-09-23T07:24:49;101492.75;;;22.22;35.78
50550;BME280;36505;52.512;13.460;2022-09-23T07:27:14;101497.84;;;22.33;35.73
50550;BME280;36505;52.512;13.460;2022-09-23T07:29:44;101495.53;;;22.54;34.88
50550;BME280;36505;52.512;13.460;2022-09-23T07:32:09;101490.25;;;22.53;34.08
50550;BME280;36505;52.512;13.460;2022-09-23T07:34:35;101487.00;;;22.64;33.95
50550;BME280;36505;52.512;13.460;2022-09-23T07:37:00;101491.09;;;23.40;33.43
50550;BME280;36505;52.512;13.460;2022-09-23T07:39:26;101489.84;;;23.33;33.40
50550;BME280;36505;52.512;13.460;2022-09-23T07:41:52;101483.84;;;23.12;33.20
50550;BME280;36505;52.512;13.460;2022-09-23T07:44:17;101483.75;;;23.17;33.54
50550;BME280;36505;52.512;13.460;2022-09-23T07:46:43;101490.16;;;23.94;32.30
50550;BME280;36505;52.512;13.460;2022-09-23T07:49:08;101490.28;;;24.12;32.03
50550;BME280;36505;52.512;13.460;2022-09-23T07:51:35;101497.16;;;24.06;32.72
50550;BME280;36505;52.512;13.460;2022-09-23T07:54:14;101494.56;;;23.95;32.14
50550;BME280;36505;52.512;13.460;2022-09-23T07:56:42;101490.78;;;24.58;31.44
50550;BME280;36505;52.512;13.460;2022-09-23T07:59:09;101494.88;;;24.30;32.35
50550;BME280;36505;52.512;13.460;2022-09-23T08:01:36;101494.94;;;24.38;32.00
50550;BME280;36505;52.512;13.460;2022-09-23T08:04:03;101488.78;;;24.28;32.15
50550;BME280;36505;52.512;13.460;2022-09-23T08:06:29;101491.94;;;24.13;32.36
50550;BME280;36505;52.512;13.460;2022-09-23T08:08:56;101495.63;;;23.99;32.51
50550;BME280;36505;52.512;13.460;2022-09-23T08:11:21;101489.59;;;23.70;33.57
50550;BME280;36505;52.512;13.460;2022-09-23T08:13:48;101485.78;;;23.66;33.57
50550;BME280;36505;52.512;13.460;2022-09-23T08:16:13;101483.28;;;24.00;33.16
50550;BME280;36505;52.512;13.460;2022-09-23T08:18:42;101482.22;;;24.32;34.20
50550;BME280;36505;52.512;13.460;2022-09-23T08:21:07;101479.63;;;24.98;32.14
50550;BME280;36505;52.512;13.460;2022-09-23T08:23:32;101482.44;;;24.98;31.85
50550;BME280;36505;52.512;13.460;2022-09-23T08:25:58;101480.34;;;25.12;31.14
50550;BME280;36505;52.512;13.460;2022-09-23T08:28:24;101476.94;;;25.32;31.81
50550;BME280;36505;52.512;13.460;2022-09-23T08:30:50;101482.53;;;25.15;30.69
50550;BME280;36505;52.512;13.460;2022-09-23T08:33:15;101483.44;;;24.40;32.43
50550;BME280;36505;52.512;13.460;2022-09-23T08:35:40;101477.81;;;24.18;32.52
50550;BME280;36505;52.512;13.460;2022-09-23T08:38:06;101478.59;;;24.54;32.06
50550;BME280;36505;52.512;13.460;2022-09-23T08:40:32;101479.25;;;24.29;32.52
50550;BME280;36505;52.512;13.460;2022-09-23T08:42:58;101471.84;;;24.11;33.47
50550;BME280;36505;52.512;13.460;2022-09-23T08:45:24;101467.91;;;24.56;32.61
50550;BME280;36505;52.512;13.460;2022-09-23T08:48:04;101468.84;;;24.52;33.13
50550;BME280;36505;52.512;13.460;2022-09-23T08:50:39;101469.91;;;24.95;32.01
50550;BME280;36505;52.512;13.460;2022-09-23T08:55:47;101454.00;;;25.22;30.94
50550;BME280;36505;52.512;13.460;2022-09-23T09:00:40;101456.84;;;25.30;30.90
50550;BME280;36505;52.512;13.460;2022-09-23T09:03:19;101452.66;;;25.59;29.67
50550;BME280;36505;52.512;13.460;2022-09-23T09:05:46;101463.13;;;25.53;30.13
50550;BME280;36505;52.512;13.460;2022-09-23T09:08:12;101457.00;;;25.34;30.34
50550;BME280;36505;52.512;13.460;2022-09-23T09:10:39;101450.19;;;25.09;30.49
50550;BME280;36505;52.512;13.460;2022-09-23T09:13:12;101453.19;;;24.82;30.67
50550;BME280;36505;52.512;13.460;2022-09-23T09:15:42;101454.06;;;24.91;30.63
50550;BME280;36505;52.512;13.460;2022-09-23T09:18:13;101453.66;;;25.14;29.81
50550;BME280;36505;52.512;13.460;2022-09-23T09:23:21;101440.94;;;24.38;31.33
50550;BME280;36505;52.512;13.460;2022-09-23T09:25:47;101446.53;;;25.00;31.73
50550;BME280;36505;52.512;13.460;2022-09-23T09:28:37;101446.16;;;25.49;30.10
50550;BME280;36505;52.512;13.460;2022-09-23T09:31:01;101444.53;;;26.00;29.50
50550;BME280;36505;52.512;13.460;2022-09-23T09:33:39;101449.63;;;26.24;27.93
50550;BME280;36505;52.512;13.460;2022-09-23T09:36:14;101445.47;;;25.52;29.17
50550;BME280;36505;52.512;13.460;2022-09-23T09:38:43;101442.47;;;25.32;29.36
50550;BME280;36505;52.512;13.460;2022-09-23T09:41:15;101444.13;;;25.24;30.47
50550;BME280;36505;52.512;13.460;2022-09-23T09:43:43;101432.50;;;25.91;28.73
50550;BME280;36505;52.512;13.460;2022-09-23T09:48:38;101419.78;;;26.02;28.91
50550;BME280;36505;52.512;13.460;2022-09-23T09:51:17;101424.78;;;25.79;28.28
50550;BME280;36505;52.512;13.460;2022-09-23T09:53:43;101418.75;;;25.46;29.55
50550;BME280;36505;52.512;13.460;2022-09-23T09:56:09;101408.59;;;25.76;29.17
50550;BME280;36505;52.512;13.460;2022-09-23T10:01:33;101405.44;;;25.86;28.97
50550;BME280;36505;52.512;13.460;2022-09-23T10:04:00;101403.94;;;25.37;28.83
50550;BME280;36505;52.512;13.460;2022-09-23T10:06:26;101395.16;;;24.34;29.72
50550;BME280;36505;52.512;13.460;2022-09-23T10:09:14;101395.00;;;24.39;30.21
50550;BME280;36505;52.512;13.460;2022-09-23T10:11:38;101391.88;;;23.87;31.98
50550;BME280;36505;52.512;13.460;2022-09-23T10:16:36;101393.78;;;23.29;31.60
50550;BME280;36505;52.512;13.460;2022-09-23T10:19:02;101389.72;;;22.99;32.53
50550;BME280;36505;52.512;13.460;2022-09-23T10:21:31;101389.56;;;23.17;30.81
50550;BME280;36505;52.512;13.460;2022-09-23T10:23:58;101394.34;;;23.03;31.47
50550;BME280;36505;52.512;13.460;2022-09-23T10:26:26;101393.66;;;22.98;29.28
50550;BME280;36505;52.512;13.460;2022-09-23T10:28:54;101390.09;;;23.19;29.14
50550;BME280;36505;52.512;13.460;2022-09-23T10:31:29;101384.38;;;23.24;30.84
50550;BME280;36505;52.512;13.460;2022-09-23T10:34:00;101390.94;;;23.06;30.73
50550;BME280;36505;52.512;13.460;2022-09-23T10:36:29;101389.72;;;22.85;30.25
50550;BME280;36505;52.512;13.460;2022-09-23T10:38:58;101387.22;;;22.70;30.75
50550;BME280;36505;52.512;13.460;2022-09-23T10:44:57;101380.78;;;22.56;30.77
50550;BME280;36505;52.512;13.460;2022-09-23T11:14:21;101353.88;;;19.58;35.58
50550;BME280;36505;52.512;13.460;2022-09-23T11:17:09;101350.16;;;19.73;35.01
50550;BME280;36505;52.512;13.460;2022-09-23T11:27:09;101344.66;;;19.29;35.20
50550;BME280;36505;52.512;13.460;2022-09-23T11:37:08;101329.19;;;18.64;36.13
50550;BME280;36505;52.512;13.460;2022-09-23T11:42:06;101325.13;;;18.31;36.34
50550;BME280;36505;52.512;13.460;2022-09-23T11:44:39;101318.81;;;18.00;37.45
50550;BME280;36505;52.512;13.460;2022-09-23T11:47:08;101310.75;;;18.03;37.27
50550;BME280;36505;52.512;13.460;2022-09-23T11:49:47;101312.41;;;18.09;37.27
50550;BME280;36505;52.512;13.460;2022-09-23T11:52:15;101312.69;;;18.13;38.29
50550;BME280;36505;52.512;13.460;2022-09-23T11:57:34;101306.38;;;17.77;38.25
50550;BME280;36505;52.512;13.460;2022-09-23T12:00:15;101298.91;;;17.72;37.87
50550;BME280;36505;52.512;13.460;2022-09-23T12:05:29;101301.13;;;17.75;37.75
50550;BME280;36505;52.512;13.460;2022-09-23T12:08:12;101291.69;;;17.46;38.52
50550;BME280;36505;52.512;13.460;2022-09-23T12:10:42;101287.25;;;17.30;38.53
50550;BME280;36505;52.512;13.460;2022-09-23T12:13:12;101285.84;;;17.27;39.68
50550;BME280;36505;52.512;13.460;2022-09-23T12:26:03;101278.41;;;17.23;39.15
50550;BME280;36505;52.512;13.460;2022-09-23T12:28:35;101274.78;;;17.22;40.04
50550;BME280;36505;52.512;13.460;2022-09-23T12:31:03;101273.41;;;17.15;39.54
50550;BME280;36505;52.512;13.460;2022-09-23T12:33:32;101269.53;;;17.06;39.68
50550;BME280;36505;52.512;13.460;2022-09-23T12:36:05;101260.38;;;16.95;39.68
50550;BME280;36505;52.512;13.460;2022-09-23T12:38:45;101265.03;;;16.74;39.95
50550;BME280;36505;52.512;13.460;2022-09-23T12:41:23;101257.88;;;16.78;40.59
50550;BME280;36505;52.512;13.460;2022-09-23T12:43:58;101254.00;;;16.84;41.31
50550;BME280;36505;52.512;13.460;2022-09-23T12:46:25;101250.41;;;16.84;40.04
50550;BME280;36505;52.512;13.460;2022-09-23T12:54:19;101247.28;;;16.60;41.43
50550;BME280;36505;52.512;13.460;2022-09-23T12:59:23;101244.75;;;16.48;40.73
50550;BME280;36505;52.512;13.460;2022-09-23T13:01:49;101239.72;;;16.35;41.00
50550;BME280;36505;52.512;13.460;2022-09-23T13:07:12;101235.56;;;16.33;41.45
50550;BME280;36505;52.512;13.460;2022-09-23T13:09:40;101226.69;;;16.26;41.64
50550;BME280;36505;52.512;13.460;2022-09-23T13:12:07;101216.78;;;16.30;42.10
50550;BME280;36505;52.512;13.460;2022-09-23T13:14:39;101221.75;;;16.33;41.65
50550;BME280;36505;52.512;13.460;2022-09-23T13:17:19;101219.25;;;16.31;41.37
50550;BME280;36505;52.512;13.460;2022-09-23T13:19:45;101217.31;;;16.32;41.81
50550;BME280;36505;52.512;13.460;2022-09-23T13:22:38;101222.31;;;16.35;41.71
50550;BME280;36505;52.512;13.460;2022-09-23T13:25:07;101209.06;;;16.42;41.78
50550;BME280;36505;52.512;13.460;2022-09-23T13:27:43;101216.53;;;16.46;40.73
50550;BME280;36505;52.512;13.460;2022-09-23T13:35:25;101208.81;;;16.43;41.64
50550;BME280;36505;52.512;13.460;2022-09-23T13:37:54;101198.00;;;16.42;41.77
50550;BME280;36505;52.512;13.460;2022-09-23T13:42:48;101186.69;;;16.43;42.23
50550;BME280;36505;52.512;13.460;2022-09-23T13:45:15;101187.78;;;16.52;41.48
50550;BME280;36505;52.512;13.460;2022-09-23T13:47:42;101184.19;;;16.52;41.93
50550;BME280;36505;52.512;13.460;2022-09-23T13:50:16;101176.47;;;16.54;41.23
50550;BME280;36505;52.512;13.460;2022-09-23T13:52:41;101171.25;;;16.57;41.51
50550;BME280;36505;52.512;13.460;2022-09-23T13:55:21;101167.34;;;16.53;41.45
50550;BME280;36505;52.512;13.460;2022-09-23T13:57:47;101163.47;;;16.44;41.71
50550;BME280;36505;52.512;13.460;2022-09-23T14:00:20;101155.16;;;16.29;41.95
50550;BME280;36505;52.512;13.460;2022-09-23T14:02:46;101149.88;;;16.23;42.07
50550;BME280;36505;52.512;13.460;2022-09-23T14:05:11;101156.50;;;16.22;41.82
50550;BME280;36505;52.512;13.460;2022-09-23T14:07:37;101159.25;;;16.16;42.29
50550;BME280;36505;52.512;13.460;2022-09-23T14:10:03;101156.50;;;16.16;42.53
50550;BME280;36505;52.512;13.460;2022-09-23T14:12:30;101150.66;;;16.08;42.49
50550;BME280;36505;52.512;13.460;2022-09-23T14:14:55;101154.78;;;16.10;42.75
50550;BME280;36505;52.512;13.460;2022-09-23T14:17:21;101152.03;;;16.10;42.44
50550;BME280;36505;52.512;13.460;2022-09-23T14:19:49;101150.34;;;16.04;42.14
50550;BME280;36505;52.512;13.460;2022-09-23T14:22:21;101144.81;;;15.99;42.56
50550;BME280;36505;52.512;13.460;2022-09-23T14:24:47;101147.00;;;15.97;41.77
50550;BME280;36505;52.512;13.460;2022-09-23T14:27:13;101141.47;;;15.92;41.40
50550;BME280;36505;52.512;13.460;2022-09-23T14:29:43;101140.91;;;15.90;42.00
50550;BME280;36505;52.512;13.460;2022-09-23T14:32:13;101137.59;;;15.88;41.82
50550;BME280;36505;52.512;13.460;2022-09-23T14:37:15;101130.16;;;15.89;41.58
50550;BME280;36505;52.512;13.460;2022-09-23T14:40:03;101132.63;;;15.90;42.19
50550;BME280;36505;52.512;13.460;2022-09-23T14:42:30;101130.09;;;15.84;41.23
50550;BME280;36505;52.512;13.460;2022-09-23T14:45:01;101131.50;;;15.81;41.25
50550;BME280;36505;52.512;13.460;2022-09-23T14:47:27;101131.50;;;15.81;41.44
50550;BME280;36505;52.512;13.460;2022-09-23T14:49:53;101125.41;;;15.79;41.17
50550;BME280;36505;52.512;13.460;2022-09-23T14:52:37;101128.72;;;15.76;41.57
50550;BME280;36505;52.512;13.460;2022-09-23T14:55:15;101125.66;;;15.77;41.55
50550;BME280;36505;52.512;13.460;2022-09-23T14:57:41;101115.47;;;15.78;41.66
50550;BME280;36505;52.512;13.460;2022-09-23T15:07:43;101116.03;;;15.80;41.28
50550;BME280;36505;52.512;13.460;2022-09-23T15:12:44;101113.78;;;15.77;41.41
50550;BME280;36505;52.512;13.460;2022-09-23T15:15:11;101119.31;;;15.77;41.41
50550;BME280;36505;52.512;13.460;2022-09-23T15:17:37;101116.03;;;15.80;41.66
50550;BME280;36505;52.512;13.460;2022-09-23T15:22:41;101114.38;;;15.79;41.56
50550;BME280;36505;52.512;13.460;2022-09-23T15:25:10;101109.09;;;15.77;41.66
50550;BME280;36505;52.512;13.460;2022-09-23T15:27:38;101109.09;;;15.77;41.88
50550;BME280;36505;52.512;13.460;2022-09-23T15:30:11;101109.41;;;15.76;41.45